Time;durP1;ratioP1;P1;durP2;ratioP2;P2;SDS_P1;SDS_P2;PMS_P1;PMS_P2;Temp;Humidity;BMP_temperature;BMP_pressure;BME280_temperature;BME280_humidity;BME280_pressure;Samples;Min_cycle;Max_cycle;Signal;HPM_P1;HPM_P2
2023/07/22 00:01:25;;;;;;;5.30;4.90;;;;;;;12.77;100.00;96852.78;5078098;28;20298;-62
2023/07/22 00:03:52;;;;;;;5.20;4.80;;;;;;;12.77;100.00;96844.81;5003849;28;20594;-64
2023/07/22 00:06:20;;;;;;;6.30;4.67;;;;;;;12.77;100.00;96853.56;5068704;28;20260;-64
2023/07/22 00:08:48;;;;;;;5.17;4.30;;;;;;;12.76;100.00;96856.47;5074507;28;20252;-62
2023/07/22 00:11:15;;;;;;;4.40;4.10;;;;;;;12.74;100.00;96854.81;5083105;28;20230;-62
2023/07/22 00:13:44;;;;;;;5.07;4.77;;;;;;;12.71;100.00;96854.41;4960762;28;20267;-62
2023/07/22 00:16:12;;;;;;;4.90;4.57;;;;;;;12.69;100.00;96848.47;5077947;28;20195;-64
2023/07/22 00:18:40;;;;;;;4.97;4.57;;;;;;;12.67;100.00;96848.66;5073304;28;20243;-65
2023/07/22 00:21:08;;;;;;;5.00;4.37;;;;;;;12.70;100.00;96845.63;5077739;28;20202;-62
2023/07/22 00:23:36;;;;;;;5.07;4.60;;;;;;;12.67;100.00;96847.88;5074137;28;20202;-64
2023/07/22 00:26:04;;;;;;;5.60;5.10;;;;;;;12.65;100.00;96849.91;5075781;28;20202;-64
2023/07/22 00:28:31;;;;;;;5.13;4.63;;;;;;;12.62;100.00;96848.47;5073571;28;20798;-64
2023/07/22 00:31:03;;;;;;;4.90;4.50;;;;;;;12.56;100.00;96838.66;5076292;28;20205;-64
2023/07/22 00:33:30;;;;;;;4.67;4.30;;;;;;;12.36;100.00;96828.03;5073047;28;20198;-66
2023/07/22 00:35:58;;;;;;;5.33;4.83;;;;;;;12.39;100.00;96843.56;5076573;28;20202;-64
2023/07/22 00:38:26;;;;;;;5.40;5.00;;;;;;;12.38;100.00;96848.09;5074885;28;20332;-63
2023/07/22 00:40:54;;;;;;;5.57;5.17;;;;;;;12.37;100.00;96845.63;5076218;28;20230;-64
2023/07/22 00:43:22;;;;;;;5.43;5.03;;;;;;;12.36;100.00;96855.44;4965440;28;20222;-64
2023/07/22 00:45:49;;;;;;;5.10;4.70;;;;;;;12.38;100.00;96848.09;5073232;28;20210;-65
2023/07/22 00:48:19;;;;;;;5.10;4.67;;;;;;;12.36;100.00;96844.81;5072687;28;20263;-63
2023/07/22 00:50:47;;;;;;;6.07;4.87;;;;;;;12.38;100.00;96841.94;5071010;28;20683;-64
2023/07/22 00:53:14;;;;;;;5.47;5.10;;;;;;;12.36;100.00;96843.97;5051905;28;20210;-62
2023/07/22 00:55:42;;;;;;;5.90;5.30;;;;;;;12.29;100.00;96836.81;5068411;28;20226;-65
2023/07/22 00:58:10;;;;;;;5.00;4.50;;;;;;;12.25;100.00;96830.28;5070356;28;20271;-62
2023/07/22 01:00:38;;;;;;;4.60;4.30;;;;;;;12.21;100.00;96828.22;5072320;28;20284;-66
2023/07/22 01:03:07;;;;;;;5.37;3.80;;;;;;;12.23;100.00;96834.16;5077051;28;20199;-64
2023/07/22 01:05:37;;;;;;;6.30;5.00;;;;;;;12.20;100.00;96832.75;5069183;28;20665;-66
2023/07/22 01:08:06;;;;;;;4.60;4.30;;;;;;;12.08;100.00;96843.13;5072863;28;20279;-64
2023/07/22 01:10:33;;;;;;;4.70;4.40;;;;;;;12.05;100.00;96851.50;5076529;28;20286;-63
2023/07/22 01:13:01;;;;;;;4.73;4.40;;;;;;;12.05;100.00;96848.84;4968208;28;20461;-63
2023/07/22 01:15:29;;;;;;;5.03;4.63;;;;;;;12.00;100.00;96841.47;5073317;28;20233;-63
2023/07/22 01:18:01;;;;;;;4.87;4.50;;;;;;;12.05;100.00;96843.53;5073360;28;20338;-65
2023/07/22 01:20:29;;;;;;;4.67;4.37;;;;;;;12.06;100.00;96839.88;5077503;28;20214;-63
2023/07/22 01:22:59;;;;;;;5.43;4.93;;;;;;;12.08;100.00;96843.13;5069174;28;20600;-67
2023/07/22 01:25:27;;;;;;;4.53;4.13;;;;;;;12.10;100.00;96838.44;5078552;28;20222;-65
2023/07/22 01:27:57;;;;;;;4.17;3.87;;;;;;;12.06;100.00;96836.38;5069573;28;20296;-63
2023/07/22 01:30:26;;;;;;;4.37;4.00;;;;;;;12.07;100.00;96835.34;5072662;28;20207;-64
2023/07/22 01:32:53;;;;;;;4.30;4.00;;;;;;;12.04;100.00;96836.59;5069334;28;20256;-64
2023/07/22 01:35:21;;;;;;;4.80;4.50;;;;;;;11.92;100.00;96830.19;5076468;28;20206;-64
2023/07/22 01:37:50;;;;;;;4.77;4.37;;;;;;;11.89;100.00;96839.41;5073172;28;20217;-66
2023/07/22 01:40:19;;;;;;;4.50;4.20;;;;;;;11.85;100.00;96833.66;5077207;28;20210;-65
2023/07/22 01:42:46;;;;;;;4.70;4.40;;;;;;;11.87;100.00;96831.63;5071073;28;20631;-63
2023/07/22 01:45:14;;;;;;;3.93;3.63;;;;;;;11.86;100.00;96832.63;5072223;28;20215;-64
2023/07/22 01:47:42;;;;;;;5.10;4.60;;;;;;;11.82;100.00;96839.38;4984328;28;21083;-65
2023/07/22 01:50:10;;;;;;;4.27;3.97;;;;;;;11.76;100.00;96832.22;5071574;28;20214;-66
2023/07/22 01:52:38;;;;;;;4.20;3.80;;;;;;;11.64;100.00;96833.81;5070500;28;20941;-65
2023/07/22 01:55:10;;;;;;;4.67;4.20;;;;;;;11.65;100.00;96838.09;5075252;28;20291;-64
2023/07/22 01:57:40;;;;;;;4.53;4.23;;;;;;;11.62;100.00;96839.31;5070883;28;20226;-63
2023/07/22 02:00:10;;;;;;;3.90;3.70;;;;;;;11.53;100.00;96841.31;5078541;28;20218;-63
2023/07/22 02:02:38;;;;;;;4.27;3.97;;;;;;;11.53;100.00;96838.66;5072410;28;20302;-65
2023/07/22 02:05:07;;;;;;;5.43;5.03;;;;;;;11.44;100.00;96838.03;5071992;28;20926;-66
2023/07/22 02:07:34;;;;;;;4.23;3.93;;;;;;;11.48;100.00;96841.09;5071496;28;20233;-65
2023/07/22 02:10:04;;;;;;;4.40;4.10;;;;;;;11.50;100.00;96849.66;5075634;28;20190;-63
2023/07/22 02:12:31;;;;;;;4.63;4.10;;;;;;;11.50;100.00;96852.31;5073720;28;20294;-67
2023/07/22 02:15:00;;;;;;;4.47;4.13;;;;;;;11.52;100.00;96852.13;5073983;28;20274;-66
2023/07/22 02:17:28;;;;;;;4.23;3.93;;;;;;;11.55;100.00;96849.91;5028979;28;20672;-66
2023/07/22 02:19:56;;;;;;;5.07;4.63;;;;;;;11.55;100.00;96849.91;5066374;28;20780;-63
2023/07/22 02:22:24;;;;;;;4.30;4.00;;;;;;;11.49;100.00;96853.34;4998247;28;20692;-66
2023/07/22 02:24:52;;;;;;;4.30;3.87;;;;;;;11.50;100.00;96849.66;5043601;28;20210;-64
2023/07/22 02:27:19;;;;;;;3.97;3.77;;;;;;;11.43;100.00;96852.31;5069379;28;20261;-65
2023/07/22 02:29:47;;;;;;;4.70;4.30;;;;;;;11.38;100.00;96853.91;5071639;28;20627;-64
2023/07/22 02:32:16;;;;;;;4.37;4.10;;;;;;;11.41;100.00;96853.53;5075991;28;20222;-63
2023/07/22 02:34:44;;;;;;;4.17;3.87;;;;;;;11.44;100.00;96851.31;5071999;28;20650;-64
2023/07/22 02:37:12;;;;;;;4.73;4.33;;;;;;;11.41;100.00;96851.69;5070815;28;20215;-65
2023/07/22 02:39:39;;;;;;;5.40;4.90;;;;;;;11.41;100.00;96853.53;5070365;28;20709;-66
2023/07/22 02:42:08;;;;;;;5.00;4.60;;;;;;;11.34;100.00;96850.03;5071517;28;20726;-66
2023/07/22 02:44:35;;;;;;;5.27;4.80;;;;;;;11.15;100.00;96855.00;5068547;28;20217;-64
2023/07/22 02:47:03;;;;;;;4.50;4.10;;;;;;;11.15;100.00;96853.19;5073697;28;20225;-65
2023/07/22 02:49:32;;;;;;;4.60;4.30;;;;;;;11.21;100.00;96861.38;5072432;28;20198;-66
2023/07/22 02:52:01;;;;;;;4.87;4.57;;;;;;;11.26;100.00;96858.94;5048932;28;20206;-67
2023/07/22 02:54:28;;;;;;;3.90;3.70;;;;;;;11.23;100.00;96854.03;5007928;28;20240;-65
2023/07/22 02:56:56;;;;;;;4.03;3.73;;;;;;;11.28;100.00;96849.78;5076311;28;20762;-67
2023/07/22 02:59:24;;;;;;;6.53;4.30;;;;;;;11.34;100.00;96856.13;5073236;28;20337;-66
2023/07/22 03:01:52;;;;;;;4.40;4.00;;;;;;;11.32;100.00;96858.16;5079025;28;20209;-67
2023/07/22 03:04:20;;;;;;;4.53;4.23;;;;;;;11.26;100.00;96858.94;5071699;28;20308;-66
2023/07/22 03:06:49;;;;;;;6.90;4.40;;;;;;;11.25;100.00;96859.97;5078450;28;20219;-66
2023/07/22 03:09:17;;;;;;;4.53;4.20;;;;;;;11.21;100.00;96867.50;5073272;28;20209;-66
2023/07/22 03:11:45;;;;;;;5.13;4.57;;;;;;;11.12;100.00;96850.09;5078396;28;20210;-64
2023/07/22 03:14:12;;;;;;;4.70;4.40;;;;;;;11.30;100.00;96870.81;5073010;28;20221;-65
2023/07/22 03:16:40;;;;;;;4.33;4.03;;;;;;;11.29;100.00;96866.50;5075620;28;20783;-66
2023/07/22 03:19:10;;;;;;;4.33;4.03;;;;;;;11.18;100.00;96869.72;5070735;28;20242;-64
2023/07/22 03:21:37;;;;;;;4.70;4.40;;;;;;;11.08;100.00;96862.13;5079292;28;20214;-65
2023/07/22 03:24:07;;;;;;;4.33;4.03;;;;;;;11.06;100.00;96866.78;5074700;28;20680;-67
2023/07/22 03:26:34;;;;;;;4.43;4.03;;;;;;;11.07;100.00;96869.25;5077992;28;20522;-66
2023/07/22 03:29:04;;;;;;;4.70;4.40;;;;;;;11.03;100.00;96873.31;4966214;28;20203;-64
2023/07/22 03:31:32;;;;;;;5.00;4.60;;;;;;;10.99;100.00;96864.94;5013529;28;20210;-62
2023/07/22 03:34:00;;;;;;;5.50;5.03;;;;;;;10.97;100.00;96874.06;5076614;28;20209;-65
2023/07/22 03:36:28;;;;;;;5.87;4.77;;;;;;;11.04;100.00;96868.81;5073064;28;20697;-66
2023/07/22 03:38:56;;;;;;;5.03;4.63;;;;;;;11.05;100.00;96866.00;5079002;28;20297;-64
2023/07/22 03:41:25;;;;;;;5.10;4.70;;;;;;;10.88;100.00;96844.28;5021913;28;20687;-67
2023/07/22 03:43:52;;;;;;;4.77;4.33;;;;;;;11.11;100.00;96875.81;5055956;28;20202;-65
2023/07/22 03:46:20;;;;;;;6.33;4.37;;;;;;;11.18;100.00;96870.56;4992283;28;20230;-65
2023/07/22 03:48:48;;;;;;;4.53;4.23;;;;;;;11.19;100.00;96882.81;5071918;28;20227;-63
2023/07/22 03:51:15;;;;;;;4.43;4.03;;;;;;;11.27;100.00;96889.75;5070309;28;20293;-63
2023/07/22 03:53:47;;;;;;;4.40;4.10;;;;;;;11.36;100.00;96885.94;5035418;28;20955;-64
2023/07/22 03:56:15;;;;;;;4.70;4.30;;;;;;;11.55;100.00;96887.06;5054934;28;20640;-65
2023/07/22 03:58:44;;;;;;;4.50;4.20;;;;;;;11.58;100.00;96885.84;5018798;28;20702;-65
2023/07/22 04:01:13;;;;;;;4.87;4.57;;;;;;;11.69;100.00;96885.25;5032237;28;20222;-59
2023/07/22 04:03:41;;;;;;;4.53;4.23;;;;;;;11.77;100.00;96892.25;5054633;28;20214;-67
2023/07/22 04:06:08;;;;;;;4.70;4.30;;;;;;;11.92;100.00;96893.91;5047674;28;20206;-65
2023/07/22 04:08:36;;;;;;;4.57;4.27;;;;;;;11.95;100.00;96891.69;5076330;28;20223;-65
2023/07/22 04:11:04;;;;;;;4.37;4.07;;;;;;;12.01;100.00;96885.59;5076049;28;20225;-63
2023/07/22 04:13:31;;;;;;;4.33;4.10;;;;;;;12.00;100.00;96889.28;5075799;28;20257;-64
2023/07/22 04:16:00;;;;;;;4.50;4.17;;;;;;;11.96;100.00;96888.00;5073300;28;20301;-61
2023/07/22 04:18:33;;;;;;;4.30;4.00;;;;;;;12.01;100.00;96884.81;5073051;28;20288;-64
2023/07/22 04:21:01;;;;;;;4.53;4.13;;;;;;;11.92;100.00;96881.47;5067271;28;20228;-60
2023/07/22 04:23:28;;;;;;;4.47;4.00;;;;;;;11.97;100.00;96897.63;5077903;28;20943;-65
2023/07/22 04:25:56;;;;;;;4.97;4.60;;;;;;;12.03;100.00;96893.38;5076156;28;20201;-63
2023/07/22 04:28:23;;;;;;;4.43;4.13;;;;;;;12.06;100.00;96889.50;5077494;28;20218;-63
2023/07/22 04:30:58;;;;;;;4.70;4.33;;;;;;;11.94;100.00;96854.72;5076921;28;20197;-63
2023/07/22 04:33:28;;;;;;;4.33;3.97;;;;;;;11.81;100.00;96861.63;5058146;28;20213;-64
2023/07/22 04:36:00;;;;;;;5.20;4.70;;;;;;;11.83;100.00;96866.75;4990477;28;20359;-63
2023/07/22 04:38:28;;;;;;;4.50;4.20;;;;;;;11.94;100.00;96905.19;5080672;28;20328;-65
2023/07/22 04:40:56;;;;;;;4.53;4.23;;;;;;;11.92;100.00;96902.72;5075593;28;20245;-63
2023/07/22 04:43:24;;;;;;;4.43;4.13;;;;;;;11.95;100.00;96898.84;5076667;28;20213;-62
2023/07/22 04:45:52;;;;;;;4.50;4.20;;;;;;;11.98;100.00;96911.72;5075215;28;20333;-63
2023/07/22 04:48:21;;;;;;;5.20;4.77;;;;;;;12.00;100.00;96920.31;5078000;28;20302;-65
2023/07/22 04:50:50;;;;;;;4.10;3.80;;;;;;;12.17;100.00;96918.13;5069614;28;20226;-63
2023/07/22 04:53:19;;;;;;;5.10;4.60;;;;;;;12.29;100.00;96919.19;5072698;28;20238;-65
2023/07/22 04:55:46;;;;;;;5.10;4.70;;;;;;;12.37;100.00;96926.16;5005004;28;20217;-60
2023/07/22 04:58:14;;;;;;;5.30;4.83;;;;;;;12.42;100.00;96926.34;4991112;28;20948;-66
2023/07/22 05:00:42;;;;;;;4.70;4.40;;;;;;;12.55;100.00;96922.91;5067245;28;21161;-63
2023/07/22 05:03:10;;;;;;;5.03;4.63;;;;;;;12.65;100.00;96924.34;5070264;28;20202;-64
2023/07/22 05:05:38;;;;;;;4.30;4.00;;;;;;;12.55;100.00;96928.22;5073177;28;20282;-63
2023/07/22 05:08:08;;;;;;;5.23;4.83;;;;;;;12.62;100.00;96920.22;4977402;28;21012;-64
2023/07/22 05:10:37;;;;;;;4.00;3.70;;;;;;;12.72;100.00;96931.31;5072511;28;20213;-60
2023/07/22 05:13:05;;;;;;;4.80;4.40;;;;;;;12.76;100.00;96917.59;5065164;28;20521;-63
2023/07/22 05:15:33;;;;;;;6.00;5.00;;;;;;;12.78;100.00;96918.22;5072499;28;20279;-64
2023/07/22 05:18:01;;;;;;;5.37;4.87;;;;;;;12.80;100.00;96924.13;5029397;28;21268;-65
2023/07/22 05:20:28;;;;;;;5.13;4.67;;;;;;;12.81;100.00;96917.81;5067692;28;20258;-64
2023/07/22 05:22:56;;;;;;;4.97;4.57;;;;;;;12.98;100.00;96920.88;5015029;28;20355;-63
2023/07/22 05:25:25;;;;;;;4.60;4.30;;;;;;;13.09;100.00;96914.91;5073915;28;20229;-62
2023/07/22 05:27:53;;;;;;;5.20;4.80;;;;;;;13.03;100.00;96918.41;5068410;28;20233;-64
2023/07/22 05:30:20;;;;;;;5.53;4.87;;;;;;;13.16;100.00;96913.06;5071832;28;20204;-65
2023/07/22 05:33:01;;;;;;;4.77;4.40;;;;;;;13.44;100.00;96920.00;5024565;28;20214;-63
2023/07/22 05:35:29;;;;;;;4.80;4.40;;;;;;;13.48;100.00;96908.94;5073686;28;20299;-64
2023/07/22 05:37:56;;;;;;;5.27;4.87;;;;;;;13.62;100.00;96915.84;5015546;28;20300;-65
2023/07/22 05:40:25;;;;;;;4.73;4.33;;;;;;;13.68;100.00;96919.50;5072860;28;20225;-64
2023/07/22 05:42:53;;;;;;;4.57;4.17;;;;;;;13.77;100.00;96925.44;4962375;28;20714;-63
2023/07/22 05:45:20;;;;;;;3.93;3.73;;;;;;;13.58;100.00;96910.13;5066437;28;20198;-63
2023/07/22 05:47:48;;;;;;;4.67;4.27;;;;;;;13.75;100.00;96928.28;5076376;28;20226;-64
2023/07/22 05:50:16;;;;;;;4.80;4.23;;;;;;;14.01;100.00;96932.69;5074192;28;20199;-64
2023/07/22 05:52:45;;;;;;;4.40;4.00;;;;;;;14.27;100.00;96927.44;5068832;28;20297;-63
2023/07/22 05:55:12;;;;;;;4.77;4.37;;;;;;;14.51;100.00;96927.69;5071379;28;20211;-63
2023/07/22 05:57:42;;;;;;;4.50;4.10;;;;;;;14.56;100.00;96936.69;5075414;28;20405;-65
2023/07/22 06:00:12;;;;;;;4.63;4.23;;;;;;;14.91;100.00;96930.09;5068211;28;20213;-64
2023/07/22 06:02:40;;;;;;;4.00;3.63;;;;;;;15.09;100.00;96921.31;5071515;28;20231;-64
2023/07/22 06:05:09;;;;;;;3.67;3.47;;;;;;;15.34;100.00;96923.16;5070375;28;20569;-65
2023/07/22 06:07:36;;;;;;;3.97;3.67;;;;;;;15.37;100.00;96917.38;5071260;28;20782;-64
2023/07/22 06:10:05;;;;;;;4.40;4.10;;;;;;;15.23;100.00;96918.53;5073196;28;20678;-64
2023/07/22 06:12:32;;;;;;;4.30;4.00;;;;;;;15.37;100.00;96924.56;4963171;28;20237;-64
2023/07/22 06:15:02;;;;;;;3.93;3.63;;;;;;;15.22;100.00;96917.72;5071703;28;20721;-63
2023/07/22 06:17:30;;;;;;;4.07;3.77;;;;;;;15.13;100.00;96927.84;5067308;28;20308;-65
2023/07/22 06:19:58;;;;;;;5.83;4.00;;;;;;;15.40;100.00;96919.59;5072212;28;20208;-64
2023/07/22 06:22:26;;;;;;;3.63;3.43;;;;;;;15.54;100.00;96932.81;5070503;28;20221;-63
2023/07/22 06:24:53;;;;;;;4.27;3.90;;;;;;;15.81;100.00;96925.31;5074904;28;20205;-65
2023/07/22 06:27:21;;;;;;;8.70;6.50;;;;;;;15.98;100.00;96930.88;5073146;28;20565;-64
2023/07/22 06:29:49;;;;;;;5.40;4.00;;;;;;;16.10;100.00;96930.13;5074512;28;20270;-63
2023/07/22 06:32:18;;;;;;;3.90;3.60;;;;;;;16.26;100.00;96944.72;5075163;28;20191;-62
2023/07/22 06:34:46;;;;;;;3.93;3.27;;;;;;;16.34;100.00;96947.91;5078041;28;20248;-63
2023/07/22 06:37:13;;;;;;;4.10;3.70;;;;;;;16.49;100.00;96942.13;5071684;28;20310;-62
2023/07/22 06:39:41;;;;;;;3.70;3.40;;;;;;;16.66;100.00;96936.13;5082278;28;20220;-63
2023/07/22 06:42:09;;;;;;;4.30;4.00;;;;;;;16.93;100.00;96938.38;4969180;28;22178;-65
2023/07/22 06:44:37;;;;;;;3.60;3.40;;;;;;;17.01;100.00;96940.75;5052292;28;20204;-63
2023/07/22 06:47:05;;;;;;;3.93;3.63;;;;;;;16.82;100.00;96949.88;5060459;28;20349;-62
2023/07/22 06:49:34;;;;;;;3.83;3.00;;;;;;;16.86;100.00;96945.72;5059145;28;20297;-61
2023/07/22 06:52:02;;;;;;;3.93;3.63;;;;;;;17.06;100.00;96948.91;5068136;28;20862;-62
2023/07/22 06:54:30;;;;;;;4.03;3.73;;;;;;;17.01;100.00;96948.78;5076697;28;20206;-63
2023/07/22 06:56:58;;;;;;;5.93;3.73;;;;;;;16.67;100.00;96948.44;5073948;28;20250;-64
2023/07/22 06:59:26;;;;;;;3.80;3.60;;;;;;;16.83;100.00;96949.66;5076707;28;20211;-61
2023/07/22 07:01:53;;;;;;;6.07;3.30;;;;;;;17.03;100.00;96951.22;5072484;28;20229;-65
2023/07/22 07:04:21;;;;;;;4.67;3.80;;;;;;;17.40;100.00;96940.28;5079238;28;20206;-63
2023/07/22 07:06:50;;;;;;;3.50;3.20;;;;;;;17.65;100.00;96942.72;5075386;28;20226;-66
2023/07/22 07:09:18;;;;;;;4.13;3.30;;;;;;;17.32;100.00;96927.25;5073467;28;20215;-62
2023/07/22 07:11:46;;;;;;;5.60;3.70;;;;;;;17.47;100.00;96941.00;5076573;28;20226;-64
2023/07/22 07:14:13;;;;;;;4.10;3.80;;;;;;;17.66;100.00;96948.88;5073893;28;20248;-62
2023/07/22 07:16:41;;;;;;;3.70;3.40;;;;;;;17.71;100.00;96945.50;5015256;28;21886;-63
2023/07/22 07:19:09;;;;;;;3.43;3.13;;;;;;;17.90;100.00;96943.47;5032365;28;20206;-63
2023/07/22 07:21:37;;;;;;;3.97;3.70;;;;;;;17.69;100.00;96955.63;5077641;28;20215;-64
2023/07/22 07:24:06;;;;;;;3.90;3.60;;;;;;;17.92;100.00;96957.47;5075728;28;20238;-63
2023/07/22 07:26:34;;;;;;;6.90;6.37;;;;;;;18.20;100.00;96958.59;5070422;28;20202;-65
2023/07/22 07:29:02;;;;;;;18.67;14.90;;;;;;;18.20;100.00;96958.59;5074711;28;20200;-65
2023/07/22 07:31:29;;;;;;;3.93;3.70;;;;;;;18.45;100.00;96958.25;5047356;28;20823;-63
2023/07/22 07:34:00;;;;;;;3.53;3.33;;;;;;;18.49;100.00;96953.19;5046756;28;20209;-65
2023/07/22 07:36:27;;;;;;;3.87;3.63;;;;;;;18.40;100.00;96955.47;5074906;28;20869;-65
2023/07/22 07:38:56;;;;;;;3.43;3.13;;;;;;;18.28;100.00;96930.56;5078942;28;20205;-63
2023/07/22 07:41:25;;;;;;;4.07;3.77;;;;;;;18.55;100.00;96959.47;5073525;28;20218;-64
2023/07/22 07:43:52;;;;;;;3.53;3.23;;;;;;;18.80;100.00;96959.09;5069124;28;20820;-62
2023/07/22 07:46:22;;;;;;;4.10;3.80;;;;;;;18.62;100.00;96954.75;5022615;28;20295;-66
2023/07/22 07:48:51;;;;;;;3.23;3.03;;;;;;;18.70;100.00;96962.41;5080807;28;20210;-59
2023/07/22 07:51:20;;;;;;;3.53;3.23;;;;;;;18.78;100.00;96958.53;4979474;28;20217;-62
2023/07/22 07:53:48;;;;;;;3.60;3.40;;;;;;;18.62;100.00;96966.31;5080683;28;20291;-63
2023/07/22 07:56:17;;;;;;;3.40;3.20;;;;;;;18.91;100.00;96962.78;5075748;28;20230;-63
2023/07/22 07:58:47;;;;;;;3.27;2.97;;;;;;;18.77;100.00;96973.84;5074500;28;20255;-63
2023/07/22 08:01:15;;;;;;;3.13;2.93;;;;;;;18.94;100.00;96970.34;5072575;28;20202;-62
2023/07/22 08:03:44;;;;;;;3.27;3.07;;;;;;;19.01;100.00;96951.44;5079323;28;20757;-62
2023/07/22 08:06:12;;;;;;;3.30;2.97;;;;;;;18.71;100.00;96961.34;5070198;28;20668;-63
2023/07/22 08:08:40;;;;;;;2.90;2.80;;;;;;;18.85;100.00;96967.22;5077502;28;21806;-62
2023/07/22 08:11:09;;;;;;;2.90;2.80;;;;;;;18.89;100.00;96975.63;5007090;28;20205;-66
2023/07/22 08:13:36;;;;;;;3.17;2.97;;;;;;;19.51;100.00;96976.63;5072877;28;20258;-65
2023/07/22 08:16:08;;;;;;;3.70;3.40;;;;;;;19.99;100.00;96981.59;5068376;28;20197;-65
2023/07/22 08:18:37;;;;;;;3.10;2.90;;;;;;;20.10;98.06;96975.25;5073904;28;20308;-63
2023/07/22 08:21:06;;;;;;;4.10;3.77;;;;;;;20.72;96.46;96970.53;5028851;28;20557;-64
2023/07/22 08:23:34;;;;;;;4.03;3.63;;;;;;;20.73;93.24;96982.94;5074578;28;20218;-62
2023/07/22 08:26:03;;;;;;;3.10;2.90;;;;;;;20.67;91.51;96974.00;4979825;28;20797;-63
2023/07/22 08:28:30;;;;;;;3.30;2.80;;;;;;;20.65;89.45;96972.63;5073308;28;20218;-62
2023/07/22 08:31:00;;;;;;;2.77;2.63;;;;;;;21.09;91.15;96977.91;5074922;28;20969;-66
2023/07/22 08:33:29;;;;;;;3.43;3.13;;;;;;;20.79;89.91;96973.03;5077479;28;20201;-63
2023/07/22 08:36:08;;;;;;;3.00;2.80;;;;;;;21.18;88.27;96966.66;5070106;28;20194;-61
2023/07/22 08:38:36;;;;;;;3.17;2.87;;;;;;;21.58;77.85;96973.38;5077757;28;20708;-63
2023/07/22 08:41:03;;;;;;;3.20;3.00;;;;;;;21.23;71.16;96974.75;5073696;28;20206;-63
2023/07/22 08:43:31;;;;;;;4.00;2.83;;;;;;;20.87;72.24;96974.47;5074334;28;20699;-64
2023/07/22 08:46:01;;;;;;;2.93;2.73;;;;;;;20.98;69.32;96975.38;5069264;28;20880;-62
2023/07/22 08:48:33;;;;;;;3.23;3.03;;;;;;;21.37;69.17;96973.22;5074831;28;20306;-66
2023/07/22 08:51:04;;;;;;;2.70;2.50;;;;;;;21.59;68.59;96971.47;5023658;28;20210;-68
2023/07/22 08:53:33;;;;;;;3.73;3.27;;;;;;;21.52;64.46;96972.53;5074551;28;20206;-65
2023/07/22 08:56:00;;;;;;;2.63;2.50;;;;;;;21.40;67.21;96975.44;5074435;28;20212;-64
2023/07/22 08:58:29;;;;;;;3.13;2.83;;;;;;;21.68;66.44;96965.38;5066413;28;20237;-66
2023/07/22 09:00:57;;;;;;;3.67;3.37;;;;;;;21.88;63.44;96976.53;4961133;28;20218;-64
2023/07/22 09:03:25;;;;;;;2.87;2.70;;;;;;;21.94;61.99;96968.22;5072099;28;20744;-63
2023/07/22 09:05:55;;;;;;;2.90;2.70;;;;;;;21.83;62.26;96970.03;5071475;28;20234;-65
2023/07/22 09:08:22;;;;;;;2.87;2.67;;;;;;;21.65;65.97;96978.59;5075073;28;20219;-65
2023/07/22 09:10:50;;;;;;;2.70;2.50;;;;;;;22.00;62.11;96963.66;5021756;28;20207;-64
2023/07/22 09:13:20;;;;;;;3.00;2.73;;;;;;;21.53;60.12;96967.97;5074037;28;20823;-63
2023/07/22 09:15:48;;;;;;;2.73;2.63;;;;;;;21.33;61.56;96966.75;5073631;28;20199;-64
2023/07/22 09:18:16;;;;;;;2.97;2.77;;;;;;;21.29;62.72;96959.44;5075586;28;20302;-66
2023/07/22 09:20:44;;;;;;;3.10;2.80;;;;;;;21.20;61.34;96964.50;5066053;28;20202;-68
2023/07/22 09:23:14;;;;;;;4.77;3.10;;;;;;;20.87;65.37;96966.38;5077799;28;20271;-66
2023/07/22 09:25:43;;;;;;;3.23;3.03;;;;;;;20.88;61.92;96966.16;5024863;28;20207;-67
2023/07/22 09:28:10;;;;;;;3.63;3.33;;;;;;;21.12;64.41;96963.09;5076023;28;20245;-66
2023/07/22 09:30:39;;;;;;;3.30;3.10;;;;;;;21.76;66.28;96950.59;4961614;28;20579;-67
2023/07/22 09:33:08;;;;;;;5.00;2.90;;;;;;;21.88;59.66;96949.56;5076528;28;20224;-64
2023/07/22 09:35:45;;;;;;;3.20;2.87;;;;;;;22.04;61.16;96950.44;5069760;28;20214;-64
2023/07/22 09:38:15;;;;;;;3.07;2.87;;;;;;;22.05;58.68;96939.41;5077648;28;20296;-62
2023/07/22 09:40:43;;;;;;;3.37;3.17;;;;;;;22.01;59.05;96943.69;5073772;28;20229;-63
2023/07/22 09:43:12;;;;;;;2.50;2.40;;;;;;;22.10;58.05;96947.50;5009432;28;20737;-67
2023/07/22 09:45:39;;;;;;;3.40;3.10;;;;;;;21.95;58.46;96945.56;5069829;28;20215;-66
2023/07/22 09:48:10;;;;;;;2.83;2.67;;;;;;;22.01;59.16;96942.88;5071950;28;20601;-65
2023/07/22 09:50:38;;;;;;;4.10;3.57;;;;;;;21.74;59.38;96949.22;5070980;28;20204;-68
2023/07/22 09:53:07;;;;;;;4.57;3.20;;;;;;;21.37;58.58;96954.38;5003712;28;20569;-65
2023/07/22 09:55:36;;;;;;;3.73;3.00;;;;;;;21.36;61.34;96944.66;5072850;28;20202;-65
2023/07/22 09:58:05;;;;;;;2.93;2.70;;;;;;;21.45;62.81;96947.69;5028209;28;20838;-65
2023/07/22 10:00:34;;;;;;;2.93;2.73;;;;;;;21.92;58.82;96940.69;5072079;28;20233;-64
2023/07/22 10:03:04;;;;;;;2.93;2.83;;;;;;;22.47;58.64;96936.84;4965097;28;21086;-64
2023/07/22 10:05:34;;;;;;;5.00;2.77;;;;;;;22.70;57.29;96933.59;5077901;28;20654;-65
2023/07/22 10:08:04;;;;;;;3.00;2.70;;;;;;;22.90;56.45;96923.91;5006586;28;20377;-65
2023/07/22 10:10:33;;;;;;;3.10;2.80;;;;;;;22.65;57.12;96930.13;5071426;28;20289;-64
2023/07/22 10:13:03;;;;;;;3.03;2.77;;;;;;;22.52;55.33;96931.44;5021261;28;21449;-64
2023/07/22 10:15:34;;;;;;;3.20;3.00;;;;;;;22.20;57.39;96930.53;5024568;28;21503;-66
2023/07/22 10:18:02;;;;;;;3.40;3.10;;;;;;;21.86;56.94;96932.84;5060832;28;20234;-65
2023/07/22 10:20:30;;;;;;;4.17;3.60;;;;;;;21.68;58.25;96922.25;5072907;28;20326;-66
2023/07/22 10:22:59;;;;;;;2.90;2.77;;;;;;;21.52;58.48;96932.09;5076045;28;20949;-65
2023/07/22 10:25:27;;;;;;;2.93;2.77;;;;;;;21.84;59.13;96930.41;5074362;28;20309;-67
2023/07/22 10:27:55;;;;;;;3.73;2.60;;;;;;;21.93;58.53;96920.72;5070809;28;20318;-65
2023/07/22 10:30:24;;;;;;;3.07;2.87;;;;;;;21.92;57.69;96919.13;5045911;28;20301;-66
2023/07/22 10:32:53;;;;;;;3.50;2.77;;;;;;;22.17;56.05;96925.69;5056817;28;20848;-63
2023/07/22 10:35:24;;;;;;;3.03;2.83;;;;;;;21.73;55.45;96917.94;5004835;28;20581;-67
2023/07/22 10:37:53;;;;;;;3.43;3.10;;;;;;;21.73;57.54;96899.91;4988191;28;21096;-68
2023/07/22 10:40:27;;;;;;;2.93;2.63;;;;;;;21.45;60.30;96925.34;5077648;28;20207;-60
2023/07/22 10:42:57;;;;;;;2.73;2.53;;;;;;;21.14;59.39;96919.75;5022066;28;20350;-65
2023/07/22 10:45:29;;;;;;;5.67;2.90;;;;;;;21.15;62.31;96919.47;5036363;28;20214;-66
2023/07/22 10:48:07;;;;;;;4.90;2.57;;;;;;;21.28;62.03;96923.59;5059589;28;20229;-62
2023/07/22 10:50:43;;;;;;;3.67;2.43;;;;;;;21.39;59.29;96898.34;5018786;28;20238;-66
2023/07/22 10:53:12;;;;;;;3.03;2.37;;;;;;;21.50;57.86;96909.97;5078170;28;20201;-65
2023/07/22 10:56:19;;;;;;;3.03;2.73;;;;;;;21.90;58.84;96913.19;5071260;28;20297;-65
2023/07/22 10:59:00;;;;;;;3.77;2.77;;;;;;;22.14;56.15;96903.81;5071966;28;20202;-64
2023/07/22 11:01:39;;;;;;;4.10;2.13;;;;;;;22.12;54.20;96904.06;5019261;28;20215;-64
2023/07/22 11:04:12;;;;;;;2.70;2.57;;;;;;;22.13;56.21;96900.28;5073790;28;20897;-64
2023/07/22 11:06:53;;;;;;;3.43;2.80;;;;;;;22.16;54.89;96897.09;4956238;28;20226;-63
2023/07/22 11:09:42;;;;;;;4.57;2.50;;;;;;;22.31;55.90;96893.56;5075536;28;20236;-64
2023/07/22 11:12:12;;;;;;;2.70;2.60;;;;;;;22.34;54.10;96892.25;5071946;28;20230;-66
2023/07/22 11:14:42;;;;;;;2.57;2.47;;;;;;;22.76;53.99;96880.44;5068458;28;20263;-64
2023/07/22 11:17:11;;;;;;;2.23;2.13;;;;;;;22.77;52.20;96889.34;5022281;28;20313;-64
2023/07/22 11:19:39;;;;;;;2.37;2.27;;;;;;;22.69;52.36;96882.59;5076722;28;20202;-62
2023/07/22 11:22:07;;;;;;;2.90;2.63;;;;;;;22.86;52.81;96882.31;5014843;28;20706;-63
2023/07/22 11:24:35;;;;;;;2.80;2.60;;;;;;;22.95;49.55;96888.00;5077444;28;20575;-64
2023/07/22 11:27:05;;;;;;;2.40;2.20;;;;;;;23.05;49.38;96869.06;5064750;28;20243;-62
2023/07/22 11:29:33;;;;;;;2.87;2.67;;;;;;;23.18;48.71;96861.47;5063257;28;20578;-62
2023/07/22 11:32:01;;;;;;;2.83;2.63;;;;;;;23.89;48.16;96865.03;5011640;28;20210;-63
2023/07/22 11:34:30;;;;;;;3.67;2.77;;;;;;;23.76;48.52;96849.41;5069134;28;20670;-64